createdAt,value
2022-10-15T00:00:53.331Z,13.33
2022-10-15T00:03:20.829Z,13.34
2022-10-15T00:05:48.297Z,13.32
2022-10-15T00:08:15.670Z,13.32
2022-10-15T00:10:43.014Z,13.32
2022-10-15T00:13:10.622Z,13.34
2022-10-15T00:15:38.220Z,13.35
2022-10-15T00:18:05.702Z,13.32
2022-10-15T00:20:33.181Z,13.31
2022-10-15T00:23:00.783Z,13.23
2022-10-15T00:25:28.406Z,13.23
2022-10-15T00:27:55.877Z,13.23
2022-10-15T00:30:23.350Z,13.23
2022-10-15T00:32:50.837Z,13.25
2022-10-15T00:35:18.465Z,13.25
2022-10-15T00:37:46.276Z,13.25
2022-10-15T00:40:16.080Z,13.23
2022-10-15T00:42:43.539Z,13.22
2022-10-15T00:45:16.171Z,13.19
2022-10-15T00:47:49.043Z,13.17
2022-10-15T00:50:28.903Z,13.16
2022-10-15T00:53:03.823Z,13.17
2022-10-15T00:55:33.445Z,13.19
2022-10-15T00:58:03.626Z,13.17
2022-10-15T01:00:31.777Z,13.18
2022-10-15T01:02:59.372Z,13.18
2022-10-15T01:05:27.456Z,13.19
2022-10-15T01:07:54.817Z,13.22
2022-10-15T01:10:22.417Z,13.21
2022-10-15T01:13:12.345Z,13.20
2022-10-15T01:16:23.383Z,13.21
2022-10-15T01:19:04.905Z,13.20
2022-10-15T01:21:50.524Z,13.19
2022-10-15T01:24:39.376Z,13.18
2022-10-15T01:27:29.036Z,13.16
2022-10-15T01:30:21.354Z,13.12
2022-10-15T01:32:54.952Z,13.14
2022-10-15T01:35:26.636Z,13.18
2022-10-15T01:38:21.119Z,13.16
2022-10-15T01:41:01.200Z,13.13
2022-10-15T01:44:06.595Z,13.14
2022-10-15T01:46:55.680Z,13.13
2022-10-15T01:49:26.436Z,13.12
2022-10-15T01:51:54.720Z,13.13
2022-10-15T01:54:24.604Z,13.14
2022-10-15T01:56:52.803Z,13.14
2022-10-15T01:59:23.284Z,13.15
2022-10-15T02:01:51.018Z,13.14
2022-10-15T02:04:23.770Z,13.14
2022-10-15T02:07:14.421Z,13.16
2022-10-15T02:10:05.057Z,13.16
2022-10-15T02:12:42.495Z,13.12
2022-10-15T02:15:36.631Z,13.13
2022-10-15T02:18:19.586Z,13.17
2022-10-15T02:21:48.174Z,13.16
2022-10-15T02:24:24.640Z,13.17
2022-10-15T02:26:54.748Z,13.13
2022-10-15T02:29:24.155Z,13.13
2022-10-15T02:31:52.959Z,13.14
2022-10-15T02:34:22.230Z,13.11
2022-10-15T02:36:50.192Z,13.12
2022-10-15T02:39:22.487Z,13.15
2022-10-15T02:41:50.689Z,13.14
2022-10-15T02:44:18.399Z,13.15
2022-10-15T02:46:46.004Z,13.17
2022-10-15T02:49:13.479Z,13.16
2022-10-15T02:51:41.205Z,13.14
2022-10-15T02:54:08.684Z,13.13
2022-10-15T02:56:36.293Z,13.14
2022-10-15T02:59:06.050Z,13.16
2022-10-15T03:01:34.491Z,13.20
2022-10-15T03:04:02.448Z,13.20
2022-10-15T03:06:29.814Z,13.21
2022-10-15T03:08:57.300Z,13.18
2022-10-15T03:11:24.652Z,13.19
2022-10-15T03:13:52.257Z,13.19
2022-10-15T03:16:19.744Z,13.22
2022-10-15T03:18:47.346Z,13.22
2022-10-15T03:21:14.702Z,13.23
2022-10-15T03:23:42.666Z,13.23
2022-10-15T03:26:10.040Z,13.26
2022-10-15T03:28:37.554Z,13.26
2022-10-15T03:31:05.122Z,13.23
2022-10-15T03:33:32.708Z,13.21
2022-10-15T03:36:00.554Z,13.21
2022-10-15T03:38:28.277Z,13.23
2022-10-15T03:40:55.654Z,13.20
2022-10-15T03:43:26.475Z,13.17
2022-10-15T03:45:53.960Z,13.21
2022-10-15T03:48:22.517Z,13.18
2022-10-15T03:50:50.019Z,13.16
2022-10-15T03:53:17.599Z,13.17
2022-10-15T03:55:45.085Z,13.17
2022-10-15T03:58:12.595Z,13.17
2022-10-15T04:00:44.472Z,13.18
2022-10-15T04:03:12.104Z,13.16
2022-10-15T04:05:39.692Z,13.18
2022-10-15T04:08:07.065Z,13.22
2022-10-15T04:10:34.776Z,13.22
2022-10-15T04:13:02.143Z,13.23
2022-10-15T04:15:29.502Z,13.24
2022-10-15T04:17:56.887Z,13.23
2022-10-15T04:20:24.360Z,13.19
2022-10-15T04:22:51.955Z,13.14
2022-10-15T04:25:19.320Z,13.16
2022-10-15T04:27:47.157Z,13.16
2022-10-15T04:30:14.755Z,13.18
2022-10-15T04:32:42.246Z,13.19
2022-10-15T04:35:10.088Z,13.21
2022-10-15T04:37:37.554Z,13.24
2022-10-15T04:40:05.872Z,13.24
2022-10-15T04:42:33.362Z,13.24
2022-10-15T04:45:00.963Z,13.25
2022-10-15T04:47:28.316Z,13.23
2022-10-15T04:49:55.679Z,13.25
2022-10-15T04:52:23.521Z,13.26
2022-10-15T04:54:51.009Z,13.26
2022-10-15T04:57:18.483Z,13.24
2022-10-15T04:59:46.207Z,13.26
2022-10-15T05:02:13.590Z,13.26
2022-10-15T05:04:41.178Z,13.25
2022-10-15T05:07:08.532Z,13.28
2022-10-15T05:09:37.283Z,13.28
2022-10-15T05:12:04.946Z,13.30
2022-10-15T05:14:32.412Z,13.27
2022-10-15T05:17:00.351Z,13.26
2022-10-15T05:19:27.758Z,13.20
2022-10-15T05:21:55.232Z,13.20
2022-10-15T05:24:22.705Z,13.21
2022-10-15T05:26:50.182Z,13.24
2022-10-15T05:29:17.665Z,13.19
2022-10-15T05:31:45.029Z,13.13
2022-10-15T05:34:12.883Z,13.17
2022-10-15T05:36:40.477Z,13.18
2022-10-15T05:39:10.720Z,13.20
2022-10-15T05:41:38.200Z,13.22
2022-10-15T05:44:05.675Z,13.22
2022-10-15T05:46:33.276Z,13.26
2022-10-15T05:49:00.890Z,13.21
2022-10-15T05:51:28.836Z,13.22
2022-10-15T05:53:57.041Z,13.20
2022-10-15T05:56:25.001Z,13.23
2022-10-15T05:58:52.607Z,13.23
2022-10-15T06:01:20.327Z,13.21
2022-10-15T06:03:48.051Z,13.23
2022-10-15T06:06:21.071Z,13.26
2022-10-15T06:08:50.221Z,13.28
2022-10-15T06:11:17.937Z,13.32
2022-10-15T06:13:46.374Z,13.33
2022-10-15T06:16:18.020Z,13.28
2022-10-15T06:18:48.536Z,13.25
2022-10-15T06:21:16.016Z,13.26
2022-10-15T06:23:43.378Z,13.29
2022-10-15T06:26:11.101Z,13.29
2022-10-15T06:28:39.512Z,13.29
2022-10-15T06:31:07.515Z,13.32
2022-10-15T06:33:36.129Z,13.33
2022-10-15T06:36:09.069Z,13.34
2022-10-15T06:38:37.395Z,13.40
2022-10-15T06:41:05.472Z,13.41
2022-10-15T06:43:35.184Z,13.43
2022-10-15T06:46:04.874Z,13.43
2022-10-15T06:48:32.959Z,13.39
2022-10-15T06:51:01.405Z,13.40
2022-10-15T06:53:29.971Z,13.39
2022-10-15T06:55:58.652Z,13.42
2022-10-15T06:58:26.844Z,13.45
2022-10-15T07:00:54.209Z,13.46
2022-10-15T07:03:21.848Z,13.47
2022-10-15T07:05:49.288Z,13.45
2022-10-15T07:08:19.231Z,13.46
2022-10-15T07:10:47.425Z,13.48
2022-10-15T07:13:14.728Z,13.47
2022-10-15T07:15:42.336Z,13.51
2022-10-15T07:18:10.057Z,13.57
2022-10-15T07:20:37.547Z,13.62
2022-10-15T07:23:05.019Z,13.65
2022-10-15T07:25:32.977Z,13.67
2022-10-15T07:28:00.704Z,13.70
2022-10-15T07:30:28.598Z,13.72
2022-10-15T07:32:57.352Z,13.71
2022-10-15T07:35:25.784Z,13.75
2022-10-15T07:37:53.510Z,13.79
2022-10-15T07:40:21.116Z,13.82
2022-10-15T07:42:55.915Z,13.83
2022-10-15T07:45:24.235Z,13.86
2022-10-15T07:47:52.192Z,13.92
2022-10-15T07:50:20.039Z,14.03
2022-10-15T07:52:47.429Z,14.14
2022-10-15T07:55:14.878Z,14.20
2022-10-15T07:57:42.364Z,14.29
2022-10-15T08:00:10.364Z,14.36
2022-10-15T08:02:37.937Z,14.41
2022-10-15T08:05:05.644Z,14.46
2022-10-15T08:07:33.372Z,14.51
2022-10-15T08:10:01.095Z,14.56
2022-10-15T08:12:28.577Z,14.62
2022-10-15T08:14:56.053Z,14.69
2022-10-15T08:17:23.417Z,14.74
2022-10-15T08:19:51.031Z,14.82
2022-10-15T08:22:18.658Z,14.90
2022-10-15T08:24:46.221Z,14.98
2022-10-15T08:27:14.342Z,15.02
2022-10-15T08:29:42.029Z,15.09
2022-10-15T08:32:09.871Z,15.14
2022-10-15T08:34:37.348Z,15.21
2022-10-15T08:37:05.228Z,15.29
2022-10-15T08:39:32.682Z,15.37
2022-10-15T08:42:06.153Z,15.44
2022-10-15T08:44:46.234Z,15.52
2022-10-15T08:47:47.796Z,15.51
2022-10-15T08:50:41.437Z,15.55
2022-10-15T08:53:14.926Z,15.63
2022-10-15T08:55:45.064Z,15.71
2022-10-15T08:58:44.686Z,15.77
2022-10-15T09:01:25.126Z,15.78
2022-10-15T09:04:03.762Z,15.77
2022-10-15T09:06:35.210Z,15.82
2022-10-15T09:09:31.029Z,15.88
2022-10-15T09:12:38.088Z,15.88
2022-10-15T09:15:12.768Z,15.87
2022-10-15T09:17:52.145Z,15.88
2022-10-15T09:20:39.918Z,15.86
2022-10-15T09:23:18.302Z,15.88
2022-10-15T09:25:50.342Z,15.90
2022-10-15T09:28:20.643Z,15.97
2022-10-15T09:30:51.660Z,16.06
2022-10-15T09:33:42.070Z,16.14
2022-10-15T09:36:15.461Z,16.22
2022-10-15T09:38:45.794Z,16.24
2022-10-15T09:41:32.839Z,16.29
2022-10-15T09:44:03.632Z,16.34
2022-10-15T09:46:33.450Z,16.43
2022-10-15T09:49:00.798Z,16.46
2022-10-15T09:52:07.756Z,16.54
2022-10-15T09:55:11.004Z,16.72
2022-10-15T09:57:39.819Z,16.92
2022-10-15T10:00:13.676Z,17.12
2022-10-15T10:02:41.795Z,17.21
2022-10-15T10:05:39.333Z,17.27
2022-10-15T10:08:31.898Z,17.36
2022-10-15T10:11:02.489Z,17.38
2022-10-15T10:13:40.123Z,17.34
2022-10-15T10:16:10.679Z,17.26
2022-10-15T10:18:38.740Z,17.20
2022-10-15T10:21:31.180Z,17.18
2022-10-15T10:24:19.421Z,17.18
2022-10-15T10:26:47.751Z,17.13
2022-10-15T10:29:33.574Z,17.17
2022-10-15T10:32:27.460Z,17.23
2022-10-15T10:34:55.061Z,17.28
2022-10-15T10:37:23.188Z,17.34
2022-10-15T10:39:59.029Z,17.29
2022-10-15T10:42:34.677Z,17.33
2022-10-15T10:45:18.864Z,17.29
2022-10-15T10:47:46.676Z,17.34
2022-10-15T10:50:32.878Z,17.38
2022-10-15T10:53:37.086Z,17.31
2022-10-15T10:56:05.404Z,17.34
2022-10-15T10:58:34.247Z,17.39
2022-10-15T11:01:01.731Z,17.35
2022-10-15T11:03:37.694Z,17.34
2022-10-15T11:06:08.040Z,17.34
2022-10-15T11:08:47.531Z,17.25
2022-10-15T11:11:24.249Z,17.18
2022-10-15T11:14:17.650Z,17.25
2022-10-15T11:16:58.338Z,17.29
2022-10-15T11:22:28.947Z,17.44
2022-10-15T11:25:28.595Z,17.43
2022-10-15T11:28:08.428Z,17.50
2022-10-15T11:31:06.506Z,17.58
2022-10-15T11:34:15.384Z,17.75
2022-10-15T11:37:07.585Z,18.03
2022-10-15T11:39:50.302Z,18.69
2022-10-15T11:42:29.670Z,19.31
2022-10-15T11:45:15.635Z,19.89
2022-10-15T11:48:01.433Z,20.17
2022-10-15T11:50:47.710Z,20.22
2022-10-15T11:53:59.802Z,20.18
2022-10-15T11:56:36.346Z,20.55
2022-10-15T11:59:34.148Z,20.82
2022-10-15T12:02:06.176Z,20.84
2022-10-15T12:04:41.319Z,20.45
2022-10-15T12:07:11.820Z,20.24
2022-10-15T12:09:41.939Z,20.08
2022-10-15T12:12:36.051Z,19.98
2022-10-15T12:15:22.366Z,19.84
2022-10-15T12:18:22.252Z,19.60
2022-10-15T12:20:49.858Z,19.47
2022-10-15T12:23:39.059Z,19.33
2022-10-15T12:26:24.799Z,19.40
2022-10-15T12:28:52.815Z,19.39
2022-10-15T12:31:20.940Z,19.40
2022-10-15T12:33:52.501Z,19.75
2022-10-15T12:36:19.748Z,20.07
2022-10-15T12:39:00.669Z,19.87
2022-10-15T12:41:40.867Z,19.49
2022-10-15T12:44:34.516Z,19.27
2022-10-15T12:47:02.105Z,19.08
2022-10-15T12:49:32.593Z,18.98
2022-10-15T12:52:02.018Z,18.84
2022-10-15T12:54:35.233Z,18.79
2022-10-15T12:57:12.441Z,18.90
2022-10-15T12:59:46.161Z,18.96
2022-10-15T13:02:39.682Z,18.98
2022-10-15T13:05:12.587Z,19.02
2022-10-15T13:07:41.124Z,18.97
2022-10-15T13:10:29.129Z,18.89
2022-10-15T13:13:04.292Z,18.63
2022-10-15T13:15:32.972Z,18.60
2022-10-15T13:18:06.814Z,18.54
2022-10-15T13:20:37.285Z,18.50
2022-10-15T13:23:29.395Z,18.46
2022-10-15T13:26:13.293Z,18.49
2022-10-15T13:28:42.185Z,18.54
2022-10-15T13:31:20.582Z,18.56
2022-10-15T13:33:52.068Z,18.43
2022-10-15T13:36:26.152Z,18.38
2022-10-15T13:39:00.415Z,18.39
2022-10-15T13:41:31.904Z,18.35
2022-10-15T13:44:01.084Z,18.35
2022-10-15T13:46:34.311Z,18.45
2022-10-15T13:49:10.794Z,18.38
2022-10-15T13:51:40.797Z,18.36
2022-10-15T13:54:11.272Z,18.40
2022-10-15T13:56:47.790Z,18.33
2022-10-15T13:59:18.360Z,18.32
2022-10-15T14:02:00.978Z,18.39
2022-10-15T14:04:29.695Z,18.42
2022-10-15T14:07:03.144Z,18.44
2022-10-15T14:09:36.253Z,18.42
2022-10-15T14:12:07.925Z,18.49
2022-10-15T14:14:47.049Z,18.68
2022-10-15T14:17:17.682Z,18.89
2022-10-15T14:20:22.173Z,19.04
2022-10-15T14:22:49.328Z,19.11
2022-10-15T14:25:22.475Z,19.02
2022-10-15T14:27:50.052Z,18.88
2022-10-15T14:30:35.892Z,18.78
2022-10-15T14:33:03.625Z,18.67
2022-10-15T14:35:34.338Z,18.69
2022-10-15T14:38:14.435Z,18.63
2022-10-15T14:40:42.025Z,18.64
2022-10-15T14:43:17.451Z,18.59
2022-10-15T14:45:51.032Z,18.60
2022-10-15T14:48:24.986Z,18.67
2022-10-15T14:50:53.307Z,18.73
2022-10-15T14:53:24.876Z,18.88
2022-10-15T14:55:56.558Z,18.89
2022-10-15T14:58:25.354Z,18.86
2022-10-15T15:01:08.921Z,18.83
2022-10-15T15:03:42.037Z,18.83
2022-10-15T15:06:10.022Z,18.79
2022-10-15T15:08:37.957Z,18.77
2022-10-15T15:11:07.846Z,18.62
2022-10-15T15:13:41.204Z,18.53
2022-10-15T15:16:16.367Z,18.34
2022-10-15T15:18:46.396Z,18.25
2022-10-15T15:21:17.205Z,18.19
2022-10-15T15:23:44.842Z,18.19
2022-10-15T15:26:12.541Z,18.23
2022-10-15T15:28:40.049Z,18.21
2022-10-15T15:31:12.540Z,18.19
2022-10-15T15:33:41.460Z,18.21
2022-10-15T15:36:20.705Z,18.14
2022-10-15T15:38:51.342Z,18.11
2022-10-15T15:41:22.913Z,18.07
2022-10-15T15:43:50.965Z,18.00
2022-10-15T15:46:18.689Z,17.99
2022-10-15T15:48:46.408Z,17.93
2022-10-15T15:51:26.835Z,17.98
2022-10-15T15:53:55.279Z,17.95
2022-10-15T15:56:22.997Z,17.89
2022-10-15T15:58:51.189Z,17.77
2022-10-15T16:01:19.214Z,17.68
2022-10-15T16:03:47.121Z,17.66
2022-10-15T16:06:14.596Z,17.64
2022-10-15T16:08:42.090Z,17.64
2022-10-15T16:11:09.441Z,17.63
2022-10-15T16:13:36.801Z,17.59
2022-10-15T16:16:05.249Z,17.48
2022-10-15T16:18:32.843Z,17.44
2022-10-15T16:21:00.206Z,17.43
2022-10-15T16:23:27.575Z,17.38
2022-10-15T16:25:57.578Z,17.35
2022-10-15T16:28:25.229Z,17.28
2022-10-15T16:30:52.651Z,17.25
2022-10-15T16:33:20.147Z,17.19
2022-10-15T16:35:53.853Z,17.14
2022-10-15T16:38:21.346Z,17.07
2022-10-15T16:40:48.825Z,16.93
2022-10-15T16:43:16.178Z,16.90
2022-10-15T16:45:43.546Z,16.87
2022-10-15T16:48:11.031Z,16.87
2022-10-15T16:50:38.632Z,16.86
2022-10-15T16:53:06.120Z,16.80
2022-10-15T16:55:34.071Z,16.73
2022-10-15T16:58:01.675Z,16.70
2022-10-15T17:00:29.244Z,16.67
2022-10-15T17:02:56.755Z,16.64
2022-10-15T17:05:24.127Z,16.63
2022-10-15T17:07:51.597Z,16.60
2022-10-15T17:10:25.602Z,16.56
2022-10-15T17:12:53.526Z,16.53
2022-10-15T17:15:21.002Z,16.47
2022-10-15T17:17:48.966Z,16.44
2022-10-15T17:20:16.446Z,16.42
2022-10-15T17:22:43.929Z,16.39
2022-10-15T17:25:11.407Z,16.36
2022-10-15T17:27:38.912Z,16.31
2022-10-15T17:30:06.976Z,16.26
2022-10-15T17:32:34.694Z,16.22
2022-10-15T17:35:04.134Z,16.19
2022-10-15T17:37:32.068Z,16.15
2022-10-15T17:39:59.969Z,16.12
2022-10-15T17:42:27.782Z,16.07
2022-10-15T17:44:55.343Z,16.02
2022-10-15T17:47:23.064Z,16.00
2022-10-15T17:49:50.790Z,15.95
2022-10-15T17:52:18.510Z,15.93
2022-10-15T17:54:46.109Z,15.90
2022-10-15T17:57:13.590Z,15.89
2022-10-15T17:59:41.076Z,15.85
2022-10-15T18:02:10.318Z,15.82
2022-10-15T18:04:39.157Z,15.78
2022-10-15T18:07:06.878Z,15.77
2022-10-15T18:09:34.243Z,15.75
2022-10-15T18:12:02.215Z,15.67
2022-10-15T18:14:30.175Z,15.66
2022-10-15T18:16:58.365Z,15.67
2022-10-15T18:19:26.999Z,15.63
2022-10-15T18:21:55.714Z,15.63
2022-10-15T18:24:26.339Z,15.60
2022-10-15T18:26:54.192Z,15.61
2022-10-15T18:29:22.493Z,15.60
2022-10-15T18:31:54.814Z,15.58
2022-10-15T18:34:24.652Z,15.55
2022-10-15T18:36:52.136Z,15.54
2022-10-15T18:39:19.617Z,15.52
2022-10-15T18:41:46.986Z,15.49
2022-10-15T18:44:16.787Z,15.46
2022-10-15T18:46:45.669Z,15.43
2022-10-15T18:49:15.315Z,15.44
2022-10-15T18:51:46.034Z,15.41
2022-10-15T18:54:14.122Z,15.38
2022-10-15T18:56:41.720Z,15.37
2022-10-15T18:59:09.311Z,15.35
2022-10-15T19:01:39.261Z,15.35
2022-10-15T19:04:09.314Z,15.34
2022-10-15T19:06:39.921Z,15.34
2022-10-15T19:09:12.600Z,15.32
2022-10-15T19:11:41.981Z,15.30
2022-10-15T19:14:09.582Z,15.28
2022-10-15T19:16:37.519Z,15.24
2022-10-15T19:19:05.726Z,15.22
2022-10-15T19:21:33.204Z,15.17
2022-10-15T19:24:00.687Z,15.21
2022-10-15T19:26:28.651Z,15.20
2022-10-15T19:28:57.394Z,15.19
2022-10-15T19:31:29.135Z,15.21
2022-10-15T19:34:00.337Z,15.20
2022-10-15T19:36:34.292Z,15.23
2022-10-15T19:39:04.058Z,15.24
2022-10-15T19:41:31.539Z,15.24
2022-10-15T19:43:59.142Z,15.24
2022-10-15T19:46:26.986Z,15.25
2022-10-15T19:48:54.341Z,15.24
2022-10-15T19:51:22.302Z,15.25
2022-10-15T19:53:54.587Z,15.29
2022-10-15T19:56:22.308Z,15.27
2022-10-15T19:58:55.910Z,15.26
2022-10-15T20:01:23.329Z,15.26
2022-10-15T20:03:51.111Z,15.24
2022-10-15T20:06:19.195Z,15.25
2022-10-15T20:08:47.159Z,15.26
2022-10-15T20:11:14.633Z,15.28
2022-10-15T20:13:41.997Z,15.29
2022-10-15T20:16:14.277Z,15.27
2022-10-15T20:18:42.614Z,15.28
2022-10-15T20:21:11.893Z,15.29
2022-10-15T20:23:40.568Z,15.29
2022-10-15T20:26:10.808Z,15.29
2022-10-15T20:28:40.275Z,15.30
2022-10-15T20:31:12.852Z,15.28
2022-10-15T20:33:41.170Z,15.27
2022-10-15T20:36:23.447Z,15.29
2022-10-15T20:38:52.604Z,15.23
2022-10-15T20:41:20.302Z,15.20
2022-10-15T20:43:55.586Z,15.16
2022-10-15T20:46:27.500Z,15.20
2022-10-15T20:48:56.277Z,15.17
2022-10-15T20:51:27.621Z,15.17
2022-10-15T20:53:58.583Z,15.10
2022-10-15T20:56:26.074Z,15.09
2022-10-15T20:58:53.441Z,15.09
2022-10-15T21:01:21.066Z,15.09
2022-10-15T21:03:48.753Z,15.09
2022-10-15T21:06:16.280Z,15.06
2022-10-15T21:08:43.718Z,15.10
2022-10-15T21:11:11.194Z,15.04
2022-10-15T21:13:38.680Z,15.01
2022-10-15T21:16:07.239Z,14.94
2022-10-15T21:18:36.165Z,14.97
2022-10-15T21:21:06.062Z,14.97
2022-10-15T21:23:33.765Z,14.95
2022-10-15T21:26:07.964Z,14.97
2022-10-15T21:28:36.381Z,14.95
2022-10-15T21:31:15.774Z,14.93
2022-10-15T21:33:43.968Z,14.92
2022-10-15T21:36:22.611Z,14.90
2022-10-15T21:39:07.009Z,14.90
2022-10-15T21:41:37.269Z,14.89
2022-10-15T21:44:06.546Z,14.90
2022-10-15T21:46:34.618Z,14.90
2022-10-15T21:49:03.535Z,14.90
2022-10-15T21:51:32.582Z,14.87
2022-10-15T21:54:01.072Z,14.82
2022-10-15T21:56:28.760Z,14.81
2022-10-15T21:58:56.598Z,14.74
2022-10-15T22:01:26.431Z,14.77
2022-10-15T22:04:01.650Z,14.79
2022-10-15T22:06:29.830Z,14.82
2022-10-15T22:08:57.332Z,14.80
2022-10-15T22:11:30.079Z,14.80
2022-10-15T22:14:00.093Z,14.81
2022-10-15T22:16:28.534Z,14.81
2022-10-15T22:18:57.080Z,14.80
2022-10-15T22:21:25.888Z,14.80
2022-10-15T22:23:54.952Z,14.79
2022-10-15T22:26:25.645Z,14.79
2022-10-15T22:28:54.898Z,14.79
2022-10-15T22:31:23.011Z,14.79
2022-10-15T22:33:50.644Z,14.80
2022-10-15T22:36:26.783Z,14.82
2022-10-15T22:39:01.740Z,14.83
2022-10-15T22:41:31.173Z,14.85
2022-10-15T22:43:59.136Z,14.84
2022-10-15T22:46:27.108Z,14.87
2022-10-15T22:48:55.068Z,14.83
2022-10-15T22:51:22.560Z,14.82
2022-10-15T22:53:50.027Z,14.82
2022-10-15T22:56:18.834Z,14.81
2022-10-15T22:58:46.671Z,14.81
2022-10-15T23:01:21.888Z,14.82
2022-10-15T23:03:51.842Z,14.80
2022-10-15T23:06:20.389Z,14.79
2022-10-15T23:08:47.888Z,14.78
2022-10-15T23:11:20.509Z,14.78
2022-10-15T23:13:51.838Z,14.78
2022-10-15T23:16:29.402Z,14.78
2022-10-15T23:19:02.398Z,14.76
2022-10-15T23:21:36.722Z,14.72
2022-10-15T23:24:05.168Z,14.73
2022-10-15T23:26:32.781Z,14.73
2022-10-15T23:29:01.383Z,14.74
2022-10-15T23:31:31.563Z,14.75
2022-10-15T23:34:00.254Z,14.73
2022-10-15T23:36:29.411Z,14.73
2022-10-15T23:39:02.420Z,14.72
2022-10-15T23:41:30.398Z,14.73
2022-10-15T23:43:58.338Z,14.71
2022-10-15T23:46:26.069Z,14.74
2022-10-15T23:48:53.778Z,14.74
2022-10-15T23:51:26.535Z,14.74
2022-10-15T23:53:56.073Z,14.74
2022-10-15T23:56:23.671Z,14.77
2022-10-15T23:58:52.706Z,14.81
